createdAt,value
2023-04-01T00:00:45.684Z,45.95
2023-04-01T00:01:45.723Z,45.90
2023-04-01T00:02:45.831Z,45.91
2023-04-01T00:03:45.024Z,45.93
2023-04-01T00:04:44.897Z,45.93
2023-04-01T00:05:45.938Z,45.92
2023-04-01T00:06:45.956Z,45.95
2023-04-01T00:07:46.016Z,45.91
2023-04-01T00:08:46.057Z,45.98
2023-04-01T00:09:46.082Z,45.94
2023-04-01T00:10:46.081Z,45.91
2023-04-01T00:11:46.149Z,45.91
2023-04-01T00:12:46.158Z,45.84
2023-04-01T00:13:46.166Z,45.86
2023-04-01T00:14:45.194Z,45.84
2023-04-01T00:15:46.265Z,45.84
2023-04-01T00:16:46.297Z,45.87
2023-04-01T00:17:46.368Z,45.88
2023-04-01T00:18:46.401Z,45.86
2023-04-01T00:19:46.427Z,45.88
2023-04-01T00:20:46.514Z,45.86
2023-04-01T00:21:46.568Z,45.81
2023-04-01T00:22:45.539Z,45.86
2023-04-01T00:23:46.554Z,45.83
2023-04-01T00:24:46.560Z,45.80
2023-04-01T00:25:46.608Z,45.78
2023-04-01T00:26:46.691Z,45.80
2023-04-01T00:27:46.715Z,45.79
2023-04-01T00:28:46.818Z,45.83
2023-04-01T00:29:45.840Z,45.81
2023-04-01T00:30:46.884Z,45.81
2023-04-01T00:31:47.009Z,45.77
2023-04-01T00:32:46.028Z,45.75
2023-04-01T00:33:47.093Z,45.75
2023-04-01T00:34:47.054Z,45.73
2023-04-01T00:35:46.092Z,45.75
2023-04-01T00:36:47.138Z,45.75
2023-04-01T00:37:46.192Z,45.77
2023-04-01T00:38:47.164Z,45.82
2023-04-01T00:39:47.210Z,45.76
2023-04-01T00:40:47.226Z,45.77
2023-04-01T00:41:47.267Z,45.74
2023-04-01T00:42:47.370Z,45.76
2023-04-01T00:43:47.315Z,45.77
2023-04-01T00:44:47.335Z,45.76
2023-04-01T00:45:47.343Z,45.73
2023-04-01T00:46:47.415Z,45.70
2023-04-01T00:47:47.445Z,45.73
2023-04-01T00:48:47.410Z,45.72
2023-04-01T00:49:46.407Z,45.71
2023-04-01T00:50:47.456Z,45.75
2023-04-01T00:51:47.435Z,45.70
2023-04-01T00:52:47.453Z,45.65
2023-04-01T00:53:47.462Z,45.65
2023-04-01T00:54:47.549Z,45.66
2023-04-01T00:55:47.508Z,45.71
2023-04-01T00:56:46.554Z,45.68
2023-04-01T00:57:47.560Z,45.65
2023-04-01T00:58:47.632Z,45.69
2023-04-01T00:59:46.583Z,45.69
2023-04-01T01:00:47.633Z,45.74
2023-04-01T01:01:46.715Z,45.71
2023-04-01T01:02:47.745Z,45.66
2023-04-01T01:03:46.634Z,45.66
2023-04-01T01:04:46.632Z,45.67
2023-04-01T01:05:49.456Z,45.65
2023-04-01T01:06:47.653Z,45.71
2023-04-01T01:07:46.634Z,45.65
2023-04-01T01:08:47.640Z,45.60
2023-04-01T01:09:47.595Z,45.61
2023-04-01T01:10:47.590Z,45.65
2023-04-01T01:11:47.593Z,45.61
2023-04-01T01:12:47.577Z,45.63
2023-04-01T01:13:46.604Z,45.61
2023-04-01T01:14:47.610Z,45.59
2023-04-01T01:15:47.557Z,45.67
2023-04-01T01:16:47.578Z,45.62
2023-04-01T01:17:47.568Z,45.63
2023-04-01T01:18:47.548Z,45.67
2023-04-01T01:19:47.530Z,45.60
2023-04-01T01:20:47.540Z,45.62
2023-04-01T01:21:46.532Z,45.61
2023-04-01T01:22:47.514Z,45.66
2023-04-01T01:23:47.509Z,45.58
2023-04-01T01:24:47.512Z,45.60
2023-04-01T01:25:47.488Z,45.61
2023-04-01T01:26:46.478Z,45.56
2023-04-01T01:27:47.592Z,45.57
2023-04-01T01:28:47.575Z,45.57
2023-04-01T01:29:47.491Z,45.63
2023-04-01T01:30:47.549Z,45.58
2023-04-01T01:31:46.509Z,45.56
2023-04-01T01:32:47.544Z,45.54
2023-04-01T01:33:47.526Z,45.57
2023-04-01T01:34:47.433Z,45.62
2023-04-01T01:35:47.456Z,45.52
2023-04-01T01:36:47.408Z,45.50
2023-04-01T01:37:47.511Z,45.52
2023-04-01T01:38:47.407Z,45.58
2023-04-01T01:39:47.421Z,45.53
2023-04-01T01:40:47.386Z,45.55
2023-04-01T01:41:47.442Z,45.54
2023-04-01T01:42:46.385Z,45.56
2023-04-01T01:43:47.394Z,45.55
2023-04-01T01:44:47.396Z,45.57
2023-04-01T01:45:47.424Z,45.58
2023-04-01T01:46:47.374Z,45.55
2023-04-01T01:47:46.425Z,45.48
2023-04-01T01:48:47.428Z,45.50
2023-04-01T01:49:47.414Z,45.55
2023-04-01T01:50:46.316Z,45.55
2023-04-01T01:51:47.295Z,45.51
2023-04-01T01:52:47.434Z,45.54
2023-04-01T01:53:47.328Z,45.56
2023-04-01T01:54:47.291Z,45.47
2023-04-01T01:55:48.060Z,45.53
2023-04-01T01:56:47.388Z,45.50
2023-04-01T01:57:47.301Z,45.49
2023-04-01T01:58:47.279Z,45.51
2023-04-01T01:59:47.251Z,45.45
2023-04-01T02:00:46.241Z,45.43
2023-04-01T02:01:47.302Z,45.41
2023-04-01T02:02:47.309Z,45.43
2023-04-01T02:03:46.219Z,45.43
2023-04-01T02:04:46.220Z,45.50
2023-04-01T02:05:47.267Z,45.41
2023-04-01T02:06:46.197Z,45.46
2023-04-01T02:07:47.176Z,45.44
2023-04-01T02:08:47.230Z,45.51
2023-04-01T02:09:47.253Z,45.45
2023-04-01T02:10:47.233Z,45.46
2023-04-01T02:11:47.242Z,45.51
2023-04-01T02:12:47.164Z,45.48
2023-04-01T02:13:47.236Z,45.44
2023-04-01T02:14:47.199Z,45.45
2023-04-01T02:15:47.223Z,45.45
2023-04-01T02:16:47.183Z,45.47
2023-04-01T02:17:47.174Z,45.45
2023-04-01T02:18:47.134Z,45.40
2023-04-01T02:19:47.163Z,45.38
2023-04-01T02:20:46.083Z,45.38
2023-04-01T02:21:47.090Z,45.38
2023-04-01T02:22:46.081Z,45.45
2023-04-01T02:23:47.074Z,45.46
2023-04-01T02:24:47.107Z,45.48
2023-04-01T02:25:47.057Z,45.43
2023-04-01T02:26:46.033Z,45.39
2023-04-01T02:27:47.035Z,45.48
2023-04-01T02:28:46.034Z,45.42
2023-04-01T02:29:47.021Z,45.43
2023-04-01T02:30:47.028Z,45.43
2023-04-01T02:31:47.083Z,45.35
2023-04-01T02:32:46.105Z,45.38
2023-04-01T02:33:47.021Z,45.44
2023-04-01T02:34:47.008Z,45.41
2023-04-01T02:35:47.018Z,45.41
2023-04-01T02:36:46.978Z,45.42
2023-04-01T02:37:46.955Z,45.32
2023-04-01T02:38:46.964Z,45.36
2023-04-01T02:39:46.963Z,45.35
2023-04-01T02:40:46.947Z,45.41
2023-04-01T02:41:46.962Z,45.35
2023-04-01T02:42:46.932Z,45.35
2023-04-01T02:43:46.946Z,45.38
2023-04-01T02:44:45.935Z,45.33
2023-04-01T02:45:46.959Z,45.29
2023-04-01T02:46:46.921Z,45.30
2023-04-01T02:47:46.944Z,45.37
2023-04-01T02:48:46.899Z,45.36
2023-04-01T02:49:46.947Z,45.29
2023-04-01T02:50:46.904Z,45.28
2023-04-01T02:51:45.899Z,45.28
2023-04-01T02:52:46.892Z,45.35
2023-04-01T02:53:45.919Z,45.33
2023-04-01T02:54:46.895Z,45.33
2023-04-01T02:55:46.846Z,45.35
2023-04-01T02:56:46.890Z,45.31
2023-04-01T02:57:46.820Z,45.31
2023-04-01T02:58:46.817Z,45.32
2023-04-01T02:59:46.839Z,45.32
2023-04-01T03:00:46.816Z,45.30
2023-04-01T03:01:46.794Z,45.32
2023-04-01T03:02:46.940Z,45.30
2023-04-01T03:03:46.791Z,45.32
2023-04-01T03:04:46.851Z,45.32
2023-04-01T03:05:45.816Z,45.28
2023-04-01T03:06:45.827Z,45.26
2023-04-01T03:07:46.787Z,45.28
2023-04-01T03:08:46.806Z,45.33
2023-04-01T03:09:46.818Z,45.28
2023-04-01T03:10:46.813Z,45.33
2023-04-01T03:11:46.781Z,45.31
2023-04-01T03:12:46.714Z,45.31
2023-04-01T03:13:45.701Z,45.29
2023-04-01T03:14:46.693Z,45.29
2023-04-01T03:15:46.740Z,45.34
2023-04-01T03:16:46.696Z,45.27
2023-04-01T03:17:46.718Z,45.24
2023-04-01T03:18:45.677Z,45.25
2023-04-01T03:19:45.709Z,45.24
2023-04-01T03:20:46.675Z,45.25
2023-04-01T03:21:46.670Z,45.26
2023-04-01T03:22:45.639Z,45.25
2023-04-01T03:23:46.642Z,45.25
2023-04-01T03:24:46.633Z,45.22
2023-04-01T03:25:45.634Z,45.28
2023-04-01T03:26:45.662Z,45.28
2023-04-01T03:27:45.649Z,45.21
2023-04-01T03:28:46.656Z,45.21
2023-04-01T03:29:46.701Z,45.24
2023-04-01T03:30:46.697Z,45.27
2023-04-01T03:31:46.694Z,45.27
2023-04-01T03:32:45.773Z,45.24
2023-04-01T03:33:46.705Z,45.28
2023-04-01T03:34:45.721Z,45.26
2023-04-01T03:35:46.736Z,45.27
2023-04-01T03:36:45.790Z,45.24
2023-04-01T03:37:46.837Z,45.22
2023-04-01T03:38:46.783Z,45.27
2023-04-01T03:39:45.754Z,45.22
2023-04-01T03:40:46.769Z,45.23
2023-04-01T03:41:46.815Z,45.23
2023-04-01T03:42:46.841Z,45.22
2023-04-01T03:43:46.803Z,45.22
2023-04-01T03:44:46.802Z,45.20
2023-04-01T03:45:46.884Z,45.24
2023-04-01T03:46:45.869Z,45.22
2023-04-01T03:47:46.894Z,45.22
2023-04-01T03:48:46.862Z,45.15
2023-04-01T03:49:46.911Z,45.15
2023-04-01T03:50:46.865Z,45.16
2023-04-01T03:51:46.875Z,45.15
2023-04-01T03:52:46.875Z,45.20
2023-04-01T03:53:45.893Z,45.20
2023-04-01T03:54:46.932Z,45.22
2023-04-01T03:55:45.889Z,45.22
2023-04-01T03:56:46.970Z,45.17
2023-04-01T03:57:46.939Z,45.18
2023-04-01T03:58:46.915Z,45.17
2023-04-01T03:59:46.916Z,45.21
2023-04-01T04:00:45.939Z,45.24
2023-04-01T04:01:45.920Z,45.21
2023-04-01T04:02:47.066Z,45.20
2023-04-01T04:03:47.044Z,45.15
2023-04-01T04:04:47.032Z,45.16
2023-04-01T04:05:46.967Z,45.16
2023-04-01T04:06:46.970Z,45.16
2023-04-01T04:07:45.980Z,45.21
2023-04-01T04:08:46.037Z,45.20
2023-04-01T04:09:47.051Z,45.19
2023-04-01T04:10:47.024Z,45.18
2023-04-01T04:11:47.078Z,45.11
2023-04-01T04:12:47.051Z,45.17
2023-04-01T04:13:47.054Z,45.13
2023-04-01T04:14:47.070Z,45.10
2023-04-01T04:15:47.094Z,45.12
2023-04-01T04:16:47.107Z,45.14
2023-04-01T04:17:47.156Z,45.16
2023-04-01T04:18:46.128Z,45.16
2023-04-01T04:19:47.153Z,45.17
2023-04-01T04:20:46.152Z,45.14
2023-04-01T04:21:46.198Z,45.08
2023-04-01T04:22:47.202Z,45.12
2023-04-01T04:23:47.212Z,45.12
2023-04-01T04:24:47.311Z,45.15
2023-04-01T04:25:47.270Z,45.14
2023-04-01T04:26:47.259Z,45.13
2023-04-01T04:27:47.257Z,45.15
2023-04-01T04:28:47.266Z,45.20
2023-04-01T04:29:46.288Z,45.19
2023-04-01T04:30:47.301Z,45.19
2023-04-01T04:31:47.390Z,45.11
2023-04-01T04:32:46.306Z,45.14
2023-04-01T04:33:47.325Z,45.11
2023-04-01T04:34:47.341Z,45.16
2023-04-01T04:35:47.325Z,45.11
2023-04-01T04:36:47.324Z,45.11
2023-04-01T04:37:47.420Z,45.14
2023-04-01T04:38:47.346Z,45.15
2023-04-01T04:39:47.362Z,45.09
2023-04-01T04:40:47.476Z,45.07
2023-04-01T04:41:47.429Z,45.06
2023-04-01T04:42:46.419Z,45.09
2023-04-01T04:43:47.455Z,45.11
2023-04-01T04:44:46.488Z,45.15
2023-04-01T04:45:47.493Z,45.13
2023-04-01T04:46:47.573Z,45.14
2023-04-01T04:47:46.475Z,45.17
2023-04-01T04:48:46.508Z,45.18
2023-04-01T04:49:47.535Z,45.15
2023-04-01T04:50:47.566Z,45.15
2023-04-01T04:51:46.552Z,45.18
2023-04-01T04:52:47.525Z,45.12
2023-04-01T04:53:47.530Z,45.16
2023-04-01T04:54:47.667Z,45.04
2023-04-01T04:55:46.597Z,45.08
2023-04-01T04:56:47.591Z,45.10
2023-04-01T04:57:46.592Z,45.17
2023-04-01T04:58:46.581Z,45.17
2023-04-01T04:59:46.609Z,45.11
2023-04-01T05:00:46.652Z,45.18
2023-04-01T05:01:47.758Z,45.15
2023-04-01T05:02:47.736Z,45.16
2023-04-01T05:03:47.770Z,45.19
2023-04-01T05:04:47.736Z,45.12
2023-04-01T05:05:47.728Z,45.12
2023-04-01T05:06:47.728Z,45.10
2023-04-01T05:07:47.754Z,45.08
2023-04-01T05:08:47.762Z,45.07
2023-04-01T05:09:47.821Z,45.07
2023-04-01T05:10:47.847Z,45.14
2023-04-01T05:11:47.928Z,45.09
2023-04-01T05:12:47.818Z,45.06
2023-04-01T05:13:47.849Z,45.11
2023-04-01T05:14:47.870Z,45.09
2023-04-01T05:15:46.883Z,45.05
2023-04-01T05:16:46.936Z,45.06
2023-04-01T05:17:47.965Z,45.05
2023-04-01T05:18:47.923Z,45.10
2023-04-01T05:19:47.979Z,45.12
2023-04-01T05:20:46.982Z,45.09
2023-04-01T05:21:48.005Z,45.05
2023-04-01T05:22:48.038Z,45.07
2023-04-01T05:23:47.052Z,45.06
2023-04-01T05:24:47.083Z,45.07
2023-04-01T05:25:48.094Z,45.07
2023-04-01T05:26:48.119Z,45.03
2023-04-01T05:27:47.136Z,45.05
2023-04-01T05:28:47.241Z,45.04
2023-04-01T05:29:48.249Z,45.05
2023-04-01T05:30:48.232Z,45.14
2023-04-01T05:31:48.278Z,45.07
2023-04-01T05:32:48.385Z,45.08
2023-04-01T05:33:47.320Z,45.03
2023-04-01T05:34:48.356Z,45.10
2023-04-01T05:35:47.382Z,45.10
2023-04-01T05:36:48.298Z,45.06
2023-04-01T05:37:48.335Z,45.06
2023-04-01T05:38:48.345Z,45.02
2023-04-01T05:39:48.392Z,45.02
2023-04-01T05:40:48.404Z,45.02
2023-04-01T05:41:48.496Z,45.05
2023-04-01T05:42:48.443Z,45.03
2023-04-01T05:43:48.490Z,45.06
2023-04-01T05:44:48.495Z,45.05
2023-04-01T05:45:48.599Z,45.04
2023-04-01T05:46:48.513Z,45.01
2023-04-01T05:47:48.596Z,45.02
2023-04-01T05:48:47.563Z,45.08
2023-04-01T05:49:47.592Z,45.02
2023-04-01T05:50:48.574Z,45.02
2023-04-01T05:51:47.612Z,45.01
2023-04-01T05:52:48.665Z,45.07
2023-04-01T05:53:48.666Z,45.03
2023-04-01T05:54:47.711Z,45.05
2023-04-01T05:55:48.678Z,45.06
2023-04-01T05:56:48.932Z,45.03
2023-04-01T05:57:48.738Z,44.97
2023-04-01T05:58:48.751Z,44.99
2023-04-01T05:59:48.783Z,45.00
2023-04-01T06:00:47.907Z,44.97
2023-04-01T06:01:48.802Z,44.97
2023-04-01T06:02:48.960Z,45.02
2023-04-01T06:03:49.241Z,44.97
2023-04-01T06:04:47.967Z,45.02
2023-04-01T06:05:48.948Z,44.98
2023-04-01T06:06:48.870Z,44.97
2023-04-01T06:07:48.895Z,44.94
2023-04-01T06:08:48.925Z,44.98
2023-04-01T06:09:48.997Z,44.91
2023-04-01T06:10:48.969Z,44.96
2023-04-01T06:11:48.986Z,44.98
2023-04-01T06:12:49.044Z,44.91
2023-04-01T06:13:49.035Z,44.93
2023-04-01T06:14:49.086Z,44.99
2023-04-01T06:15:49.097Z,44.96
2023-04-01T06:16:49.136Z,44.98
2023-04-01T06:17:48.266Z,44.95
2023-04-01T06:18:49.180Z,44.94
2023-04-01T06:19:49.264Z,44.94
2023-04-01T06:20:48.221Z,44.90
2023-04-01T06:21:49.249Z,44.90
2023-04-01T06:22:49.339Z,44.87
2023-04-01T06:23:49.341Z,44.86
2023-04-01T06:24:49.369Z,44.84
2023-04-01T06:25:48.405Z,44.83
2023-04-01T06:26:48.415Z,44.83
2023-04-01T06:27:49.407Z,44.81
2023-04-01T06:28:49.397Z,44.86
2023-04-01T06:29:49.450Z,44.87
2023-04-01T06:30:49.483Z,44.82
2023-04-01T06:31:48.474Z,44.85
2023-04-01T06:32:49.656Z,44.81
2023-04-01T06:33:49.544Z,44.81
2023-04-01T06:34:49.561Z,44.82
2023-04-01T06:35:48.616Z,44.79
2023-04-01T06:36:49.591Z,44.85
2023-04-01T06:37:49.622Z,44.87
2023-04-01T06:38:48.604Z,44.82
2023-04-01T06:39:49.679Z,44.80
2023-04-01T06:40:49.664Z,44.79
2023-04-01T06:41:48.659Z,44.77
2023-04-01T06:42:49.697Z,44.77
2023-04-01T06:43:49.700Z,44.81
2023-04-01T06:44:49.752Z,44.79
2023-04-01T06:45:49.749Z,44.80
2023-04-01T06:46:49.793Z,44.75
2023-04-01T06:47:49.804Z,44.75
2023-04-01T06:48:49.836Z,44.80
2023-04-01T06:49:48.878Z,44.80
2023-04-01T06:50:49.875Z,44.76
2023-04-01T06:51:49.899Z,44.81
2023-04-01T06:52:49.922Z,44.83
2023-04-01T06:53:48.944Z,44.80
2023-04-01T06:54:48.990Z,44.77
2023-04-01T06:55:49.018Z,44.76
2023-04-01T06:56:50.046Z,44.74
2023-04-01T06:57:50.048Z,44.76
2023-04-01T06:58:49.076Z,44.73
2023-04-01T06:59:50.101Z,44.72
2023-04-01T07:00:50.219Z,44.71
2023-04-01T07:01:50.219Z,44.70
2023-04-01T07:02:50.208Z,44.69
2023-04-01T07:03:50.201Z,44.70
2023-04-01T07:04:50.255Z,44.64
2023-04-01T07:05:50.263Z,44.65
2023-04-01T07:06:50.268Z,44.65
2023-04-01T07:07:50.292Z,44.64
2023-04-01T07:08:50.319Z,44.64
2023-04-01T07:09:50.337Z,44.63
2023-04-01T07:10:50.363Z,44.63
2023-04-01T07:11:50.389Z,44.61
2023-04-01T07:12:50.446Z,44.60
2023-04-01T07:13:50.436Z,44.56
2023-04-01T07:14:50.468Z,44.54
2023-04-01T07:15:50.491Z,44.52
2023-04-01T07:16:50.515Z,44.48
2023-04-01T07:17:50.564Z,44.45
2023-04-01T07:18:49.510Z,44.43
2023-04-01T07:19:50.619Z,44.42
2023-04-01T07:20:49.550Z,44.41
2023-04-01T07:21:49.540Z,44.39
2023-04-01T07:22:49.553Z,44.38
2023-04-01T07:23:50.569Z,44.36
2023-04-01T07:24:50.569Z,44.36
2023-04-01T07:25:50.600Z,44.36
2023-04-01T07:26:50.598Z,44.32
2023-04-01T07:27:50.612Z,44.36
2023-04-01T07:28:50.668Z,44.37
2023-04-01T07:29:49.694Z,44.35
2023-04-01T07:30:49.776Z,44.39
2023-04-01T07:31:50.697Z,44.40
2023-04-01T07:32:50.768Z,44.40
2023-04-01T07:33:50.724Z,44.38
2023-04-01T07:34:50.819Z,44.39
2023-04-01T07:35:50.851Z,44.37
2023-04-01T07:36:50.863Z,44.42
2023-04-01T07:37:50.840Z,44.39
2023-04-01T07:38:49.941Z,44.39
2023-04-01T07:39:49.852Z,44.38
2023-04-01T07:40:50.898Z,44.42
2023-04-01T07:41:50.867Z,44.43
2023-04-01T07:42:50.865Z,44.37
2023-04-01T07:43:50.900Z,44.36
2023-04-01T07:44:49.877Z,44.33
2023-04-01T07:45:51.011Z,44.34
2023-04-01T07:46:50.938Z,44.37
2023-04-01T07:47:50.933Z,44.36
2023-04-01T07:48:50.942Z,44.35
2023-04-01T07:49:49.933Z,44.37
2023-04-01T07:50:51.960Z,44.35
2023-04-01T07:51:49.950Z,44.37
2023-04-01T07:52:51.007Z,44.37
2023-04-01T07:53:50.981Z,44.38
2023-04-01T07:54:50.943Z,44.39
2023-04-01T07:55:49.956Z,44.42
2023-04-01T07:56:51.016Z,44.39
2023-04-01T07:57:50.607Z,44.39
2023-04-01T07:58:50.911Z,44.42
2023-04-01T07:59:50.902Z,44.41
2023-04-01T08:00:49.933Z,44.40
2023-04-01T08:01:50.925Z,44.36
2023-04-01T08:02:49.954Z,44.34
2023-04-01T08:03:49.966Z,44.36
2023-04-01T08:04:50.929Z,44.34
2023-04-01T08:05:50.903Z,44.32
2023-04-01T08:06:50.849Z,44.31
2023-04-01T08:07:50.872Z,44.31
2023-04-01T08:08:50.905Z,44.33
2023-04-01T08:09:50.855Z,44.31
2023-04-01T08:10:50.859Z,44.34
2023-04-01T08:11:49.909Z,44.32
2023-04-01T08:12:50.817Z,44.35
2023-04-01T08:13:49.826Z,44.33
2023-04-01T08:14:50.822Z,44.34
2023-04-01T08:15:49.834Z,44.30
2023-04-01T08:16:52.069Z,44.27
2023-04-01T08:17:50.939Z,44.30
2023-04-01T08:18:49.758Z,44.28
2023-04-01T08:19:50.759Z,44.28
2023-04-01T08:20:50.810Z,44.25
2023-04-01T08:21:50.795Z,44.22
2023-04-01T08:22:50.741Z,44.13
2023-04-01T08:23:50.747Z,44.15
2023-04-01T08:24:50.746Z,44.10
2023-04-01T08:25:50.697Z,43.99
2023-04-01T08:26:50.714Z,43.92
2023-04-01T08:27:51.599Z,43.88
2023-04-01T08:28:50.693Z,43.83
2023-04-01T08:29:50.670Z,43.77
2023-04-01T08:30:50.697Z,43.79
2023-04-01T08:31:49.841Z,43.78
2023-04-01T08:32:50.807Z,43.74
2023-04-01T08:33:50.652Z,43.71
2023-04-01T08:34:49.637Z,43.64
2023-04-01T08:35:50.681Z,43.65
2023-04-01T08:36:50.713Z,43.68
2023-04-01T08:37:50.618Z,43.62
2023-04-01T08:38:49.615Z,43.58
2023-04-01T08:39:49.591Z,43.60
2023-04-01T08:40:50.606Z,43.58
2023-04-01T08:41:50.573Z,43.59
2023-04-01T08:42:50.588Z,43.64
2023-04-01T08:43:50.574Z,43.61
2023-04-01T08:44:49.557Z,43.55
2023-04-01T08:45:49.628Z,43.57
2023-04-01T08:46:50.586Z,43.57
2023-04-01T08:47:50.554Z,43.59
2023-04-01T08:48:50.532Z,43.52
2023-04-01T08:49:50.527Z,43.62
2023-04-01T08:50:50.536Z,43.53
2023-04-01T08:51:49.525Z,43.46
2023-04-01T08:52:50.530Z,43.46
2023-04-01T08:53:50.517Z,43.43
2023-04-01T08:54:50.547Z,43.44
2023-04-01T08:55:50.573Z,43.46
2023-04-01T08:56:49.688Z,43.42
2023-04-01T08:57:50.526Z,43.36
2023-04-01T08:58:50.753Z,43.38
2023-04-01T08:59:50.838Z,43.37
2023-04-01T09:00:50.880Z,43.36
2023-04-01T09:01:51.010Z,43.29
2023-04-01T09:02:51.057Z,43.31
2023-04-01T09:03:51.146Z,43.32
2023-04-01T09:04:51.124Z,43.31
2023-04-01T09:05:51.160Z,43.25
2023-04-01T09:06:51.267Z,43.27
2023-04-01T09:07:51.350Z,43.33
2023-04-01T09:08:51.368Z,43.30
2023-04-01T09:09:51.419Z,43.31
2023-04-01T09:10:50.476Z,43.25
2023-04-01T09:11:52.900Z,43.20
2023-04-01T09:12:50.683Z,43.18
2023-04-01T09:13:50.789Z,43.25
2023-04-01T09:14:51.822Z,43.25
2023-04-01T09:15:51.914Z,43.24
2023-04-01T09:16:51.931Z,43.26
2023-04-01T09:17:52.055Z,43.25
2023-04-01T09:18:51.068Z,43.29
2023-04-01T09:19:52.135Z,43.27
2023-04-01T09:20:51.180Z,43.33
2023-04-01T09:21:51.280Z,43.32
2023-04-01T09:22:52.354Z,43.31
2023-04-01T09:23:52.379Z,43.34
2023-04-01T09:24:52.480Z,43.27
2023-04-01T09:25:52.530Z,43.16
2023-04-01T09:26:52.572Z,43.17
2023-04-01T09:27:51.629Z,43.25
2023-04-01T09:28:51.656Z,43.10
2023-04-01T09:29:52.733Z,43.19
2023-04-01T09:30:52.781Z,43.13
2023-04-01T09:31:52.925Z,43.09
2023-04-01T09:32:51.914Z,43.05
2023-04-01T09:33:52.938Z,43.17
2023-04-01T09:34:54.293Z,43.15
2023-04-01T09:35:53.080Z,43.15
2023-04-01T09:36:53.131Z,43.11
2023-04-01T09:37:52.162Z,43.16
2023-04-01T09:38:53.226Z,43.15
2023-04-01T09:39:53.261Z,43.11
2023-04-01T09:40:53.370Z,43.08
2023-04-01T09:41:53.390Z,43.09
2023-04-01T09:42:53.452Z,43.08
2023-04-01T09:43:53.605Z,43.13
2023-04-01T09:44:53.565Z,43.12
2023-04-01T09:45:53.705Z,43.09
2023-04-01T09:46:53.707Z,43.11
2023-04-01T09:47:52.830Z,43.11
2023-04-01T09:48:53.816Z,43.10
2023-04-01T09:49:53.897Z,43.07
2023-04-01T09:50:53.997Z,43.04
2023-04-01T09:51:54.018Z,42.98
2023-04-01T09:52:54.154Z,42.96
2023-04-01T09:53:53.142Z,42.95
2023-04-01T09:54:54.203Z,42.94
2023-04-01T09:55:53.250Z,42.94
2023-04-01T09:56:54.398Z,42.92
2023-04-01T09:57:54.368Z,42.92
2023-04-01T09:58:54.417Z,42.82
2023-04-01T09:59:54.520Z,42.80
2023-04-01T10:00:54.515Z,42.79
2023-04-01T10:01:53.756Z,42.86
2023-04-01T10:02:54.650Z,42.85
2023-04-01T10:03:53.677Z,42.88
2023-04-01T10:04:53.745Z,42.83
2023-04-01T10:05:54.930Z,42.85
2023-04-01T10:06:54.841Z,42.86
2023-04-01T10:07:53.918Z,42.84
2023-04-01T10:08:54.980Z,42.84
2023-04-01T10:09:55.097Z,42.84
2023-04-01T10:10:55.111Z,42.84
2023-04-01T10:11:55.231Z,42.83
2023-04-01T10:12:54.251Z,42.78
2023-04-01T10:13:55.310Z,42.79
2023-04-01T10:14:55.374Z,42.82
2023-04-01T10:15:54.426Z,42.82
2023-04-01T10:16:54.546Z,42.82
2023-04-01T10:17:55.657Z,42.82
2023-04-01T10:18:55.612Z,42.79
2023-04-01T10:19:55.648Z,42.83
2023-04-01T10:20:55.727Z,42.77
2023-04-01T10:21:55.798Z,42.73
2023-04-01T10:22:55.851Z,42.75
2023-04-01T10:23:54.962Z,42.72
2023-04-01T10:24:55.965Z,42.77
2023-04-01T10:25:56.022Z,42.79
2023-04-01T10:26:55.089Z,42.76
2023-04-01T10:27:56.150Z,42.80
2023-04-01T10:28:56.202Z,42.77
2023-04-01T10:29:56.266Z,42.77
2023-04-01T10:30:56.318Z,42.78
2023-04-01T10:31:55.508Z,42.79
2023-04-01T10:32:56.624Z,42.78
2023-04-01T10:33:55.546Z,42.75
2023-04-01T10:34:56.586Z,42.71
2023-04-01T10:35:56.683Z,42.75
2023-04-01T10:36:56.783Z,42.70
2023-04-01T10:37:55.788Z,42.72
2023-04-01T10:38:56.878Z,42.70
2023-04-01T10:39:56.891Z,42.69
2023-04-01T10:40:56.972Z,42.69
2023-04-01T10:41:57.068Z,42.71
2023-04-01T10:42:57.059Z,42.70
2023-04-01T10:43:56.132Z,42.69
2023-04-01T10:44:56.209Z,42.70
2023-04-01T10:45:57.387Z,42.65
2023-04-01T10:46:56.310Z,42.66
2023-04-01T10:47:57.444Z,42.68
2023-04-01T10:48:57.441Z,42.67
2023-04-01T10:49:57.502Z,42.65
2023-04-01T10:50:57.581Z,42.62
2023-04-01T10:51:57.646Z,42.62
2023-04-01T10:52:56.695Z,42.65
2023-04-01T10:53:57.722Z,42.64
2023-04-01T10:54:57.798Z,42.64
2023-04-01T10:55:57.861Z,42.64
2023-04-01T10:56:57.940Z,42.63
2023-04-01T10:57:57.999Z,42.67
2023-04-01T10:58:58.019Z,42.62
2023-04-01T10:59:58.094Z,42.61
2023-04-01T11:00:58.160Z,42.59
2023-04-01T11:02:09.962Z,42.58
2023-04-01T11:02:58.379Z,42.62
2023-04-01T11:03:57.487Z,42.63
2023-04-01T11:04:57.193Z,42.62
2023-04-01T11:05:58.180Z,42.61
2023-04-01T11:06:58.174Z,42.62
2023-04-01T11:08:05.975Z,42.60
2023-04-01T11:08:58.175Z,42.58
2023-04-01T11:09:58.157Z,42.61
2023-04-01T11:10:57.143Z,42.61
2023-04-01T11:11:58.147Z,42.60
2023-04-01T11:12:58.191Z,42.59
2023-04-01T11:13:58.169Z,42.61
2023-04-01T11:14:57.140Z,42.62
2023-04-01T11:15:57.169Z,42.61
2023-04-01T11:16:57.156Z,42.59
2023-04-01T11:17:57.162Z,42.62
2023-04-01T11:18:57.083Z,42.61
2023-04-01T11:19:58.118Z,42.63
2023-04-01T11:20:58.107Z,42.60
2023-04-01T11:21:57.058Z,42.61
2023-04-01T11:22:58.073Z,42.59
2023-04-01T11:24:04.897Z,42.57
2023-04-01T11:24:58.036Z,42.58
2023-04-01T11:25:57.036Z,42.63
2023-04-01T11:26:58.100Z,42.59
2023-04-01T11:27:58.031Z,42.60
2023-04-01T11:28:58.002Z,42.60
2023-04-01T11:30:00.654Z,42.57
2023-04-01T11:30:58.024Z,42.59
2023-04-01T11:31:57.983Z,42.62
2023-04-01T11:32:58.039Z,42.64
2023-04-01T11:33:56.970Z,42.60
2023-04-01T11:34:56.957Z,42.55
2023-04-01T11:35:57.968Z,42.50
2023-04-01T11:36:58.040Z,42.52
2023-04-01T11:37:56.941Z,42.53
2023-04-01T11:38:57.928Z,42.52
2023-04-01T11:39:58.299Z,42.47
2023-04-01T11:40:56.900Z,42.53
2023-04-01T11:41:57.911Z,42.54
2023-04-01T11:42:56.906Z,42.59
2023-04-01T11:43:56.894Z,42.56
2023-04-01T11:44:57.886Z,42.49
2023-04-01T11:45:57.873Z,42.61
2023-04-01T11:46:56.844Z,42.61
2023-04-01T11:47:57.920Z,42.64
2023-04-01T11:48:57.833Z,42.61
2023-04-01T11:49:57.830Z,42.60
2023-04-01T11:50:56.833Z,42.56
2023-04-01T11:51:57.838Z,42.54
2023-04-01T11:52:56.876Z,42.49
2023-04-01T11:53:57.979Z,42.49
2023-04-01T11:54:58.022Z,42.52
2023-04-01T11:55:57.074Z,42.62
2023-04-01T11:56:58.157Z,42.64
2023-04-01T11:57:58.242Z,42.56
2023-04-01T11:58:58.279Z,42.56
2023-04-01T11:59:58.291Z,42.50
2023-04-01T12:00:57.402Z,42.48
2023-04-01T12:01:58.421Z,42.51
2023-04-01T12:02:58.644Z,42.41
2023-04-01T12:03:57.793Z,42.36
2023-04-01T12:04:57.859Z,42.48
2023-04-01T12:05:57.719Z,42.45
2023-04-01T12:06:58.736Z,42.44
2023-04-01T12:07:58.866Z,42.42
2023-04-01T12:08:58.854Z,42.41
2023-04-01T12:09:58.914Z,42.48
2023-04-01T12:10:57.986Z,42.48
2023-04-01T12:11:59.019Z,42.46
2023-04-01T12:13:01.548Z,42.43
2023-04-01T12:13:58.076Z,42.37
2023-04-01T12:14:58.070Z,42.33
2023-04-01T12:15:59.087Z,42.31
2023-04-01T12:16:58.057Z,42.32
2023-04-01T12:17:59.098Z,42.46
2023-04-01T12:18:58.068Z,42.49
2023-04-01T12:19:59.136Z,42.38
2023-04-01T12:20:58.046Z,42.31
2023-04-01T12:21:58.025Z,42.39
2023-04-01T12:22:59.090Z,42.34
2023-04-01T12:23:59.030Z,42.33
2023-04-01T12:24:59.077Z,42.42
2023-04-01T12:25:59.004Z,42.41
2023-04-01T12:26:58.975Z,42.41
2023-04-01T12:27:58.969Z,42.35
2023-04-01T12:28:58.987Z,42.29
2023-04-01T12:29:58.954Z,42.29
2023-04-01T12:30:58.956Z,42.31
2023-04-01T12:31:58.981Z,42.27
2023-04-01T12:32:59.019Z,42.29
2023-04-01T12:33:57.959Z,42.23
2023-04-01T12:34:58.951Z,42.24
2023-04-01T12:35:58.990Z,42.27
2023-04-01T12:36:58.959Z,42.26
2023-04-01T12:37:59.110Z,42.27
2023-04-01T12:38:59.119Z,42.38
2023-04-01T12:39:58.171Z,42.28
2023-04-01T12:40:58.228Z,42.29
2023-04-01T12:41:59.270Z,42.26
2023-04-01T12:42:59.343Z,42.28
2023-04-01T12:43:59.388Z,42.25
2023-04-01T12:44:59.445Z,42.31
2023-04-01T12:45:59.531Z,42.39
2023-04-01T12:46:58.570Z,42.35
2023-04-01T12:47:58.706Z,42.36
2023-04-01T12:48:58.707Z,42.40
2023-04-01T12:49:59.756Z,42.42
2023-04-01T12:50:59.842Z,42.31
2023-04-01T12:51:58.894Z,42.35
2023-04-01T12:52:59.953Z,42.34